createdAt,value
2023-04-29T00:02:17.450Z,13.00
2023-04-29T00:04:45.378Z,12.90
2023-04-29T00:07:15.406Z,12.90
2023-04-29T00:09:44.538Z,12.90
2023-04-29T00:12:12.283Z,12.90
2023-04-29T00:14:40.054Z,12.90
2023-04-29T00:17:08.032Z,12.90
2023-04-29T00:19:35.980Z,12.80
2023-04-29T00:22:03.700Z,12.80
2023-04-29T00:24:31.456Z,12.80
2023-04-29T00:27:02.577Z,12.80
2023-04-29T00:29:30.340Z,12.80
2023-04-29T00:31:58.133Z,12.80
2023-04-29T00:34:25.897Z,12.70
2023-04-29T00:36:53.597Z,12.60
2023-04-29T00:39:21.325Z,12.60
2023-04-29T00:41:49.067Z,12.50
2023-04-29T00:44:18.196Z,12.50
2023-04-29T00:46:46.028Z,12.50
2023-04-29T00:49:14.546Z,12.40
2023-04-29T00:51:43.044Z,12.40
2023-04-29T00:54:11.658Z,12.40
2023-04-29T00:56:41.428Z,12.40
2023-04-29T00:59:10.808Z,12.30
2023-04-29T01:01:40.072Z,12.30
2023-04-29T01:04:08.295Z,12.30
2023-04-29T01:06:41.912Z,12.40
2023-04-29T01:09:18.089Z,12.30
2023-04-29T01:11:55.253Z,12.30
2023-04-29T01:14:24.219Z,12.30
2023-04-29T01:16:57.400Z,12.30
2023-04-29T01:19:29.554Z,12.20
2023-04-29T01:21:57.437Z,12.20
2023-04-29T01:24:26.777Z,12.20
2023-04-29T01:26:57.166Z,12.20
2023-04-29T01:29:29.542Z,12.20
2023-04-29T01:32:01.348Z,12.20
2023-04-29T01:34:31.982Z,12.20
2023-04-29T01:37:06.144Z,12.20
2023-04-29T01:39:42.646Z,12.20
2023-04-29T01:42:15.926Z,12.10
2023-04-29T01:44:43.973Z,12.10
2023-04-29T01:47:14.028Z,12.00
2023-04-29T01:49:41.747Z,12.10
2023-04-29T01:52:09.473Z,12.10
2023-04-29T01:54:38.685Z,12.10
2023-04-29T01:57:06.404Z,12.10
2023-04-29T01:59:34.100Z,12.10
2023-04-29T02:02:01.799Z,12.10
2023-04-29T02:04:29.652Z,12.10
2023-04-29T02:06:57.413Z,12.10
2023-04-29T02:09:25.220Z,12.10
2023-04-29T02:11:54.273Z,12.10
2023-04-29T02:14:22.043Z,12.00
2023-04-29T02:16:49.767Z,12.00
2023-04-29T02:19:17.556Z,12.00
2023-04-29T02:21:45.741Z,12.00
2023-04-29T02:24:13.554Z,12.00
2023-04-29T02:26:41.332Z,12.10
2023-04-29T02:29:10.459Z,12.00
2023-04-29T02:31:38.264Z,12.00
2023-04-29T02:34:06.029Z,12.00
2023-04-29T02:36:34.029Z,11.90
2023-04-29T02:39:01.749Z,12.00
2023-04-29T02:41:29.448Z,12.00
2023-04-29T02:43:57.127Z,11.90
2023-04-29T02:46:26.427Z,11.90
2023-04-29T02:48:54.260Z,11.90
2023-04-29T02:51:21.995Z,11.90
2023-04-29T02:53:49.732Z,11.80
2023-04-29T02:56:17.457Z,11.90
2023-04-29T02:58:45.204Z,11.80
2023-04-29T03:01:12.949Z,11.80
2023-04-29T03:03:42.475Z,11.80
2023-04-29T03:06:10.409Z,11.90
2023-04-29T03:08:38.158Z,11.90
2023-04-29T03:11:06.603Z,11.90
2023-04-29T03:13:34.353Z,11.90
2023-04-29T03:16:02.166Z,11.90
2023-04-29T03:18:29.842Z,11.90
2023-04-29T03:20:59.153Z,11.90
2023-04-29T03:23:26.874Z,11.80
2023-04-29T03:25:55.994Z,11.80
2023-04-29T03:28:23.928Z,11.80
2023-04-29T03:30:51.704Z,11.70
2023-04-29T03:33:19.458Z,11.70
2023-04-29T03:35:47.256Z,11.70
2023-04-29T03:38:16.274Z,11.70
2023-04-29T03:40:45.379Z,11.70
2023-04-29T03:43:14.017Z,11.60
2023-04-29T03:45:41.787Z,11.70
2023-04-29T03:48:09.575Z,11.70
2023-04-29T03:50:37.559Z,11.60
2023-04-29T03:53:05.307Z,11.60
2023-04-29T03:55:34.446Z,11.60
2023-04-29T03:58:02.300Z,11.60
2023-04-29T04:00:31.500Z,11.60
2023-04-29T04:02:59.670Z,11.60
2023-04-29T04:05:28.084Z,11.60
2023-04-29T04:07:55.803Z,11.50
2023-04-29T04:10:23.470Z,11.60
2023-04-29T04:12:52.557Z,11.60
2023-04-29T04:15:20.867Z,11.60
2023-04-29T04:17:48.614Z,11.60
2023-04-29T04:20:16.511Z,11.60
2023-04-29T04:22:44.244Z,11.60
2023-04-29T04:25:12.190Z,11.60
2023-04-29T04:27:39.877Z,11.60
2023-04-29T04:30:09.930Z,11.60
2023-04-29T04:32:37.812Z,11.60
2023-04-29T04:35:06.498Z,11.50
2023-04-29T04:37:34.240Z,11.40
2023-04-29T04:40:02.121Z,11.40
2023-04-29T04:42:29.906Z,11.40
2023-04-29T04:44:58.317Z,11.40
2023-04-29T04:47:27.448Z,11.30
2023-04-29T04:49:55.400Z,11.30
2023-04-29T04:52:23.458Z,11.30
2023-04-29T04:54:51.525Z,11.30
2023-04-29T04:57:19.261Z,11.30
2023-04-29T04:59:47.025Z,11.30
2023-04-29T05:02:14.750Z,11.40
2023-04-29T05:04:44.597Z,11.40
2023-04-29T05:07:12.286Z,11.50
2023-04-29T05:09:39.947Z,11.50
2023-04-29T05:12:07.765Z,11.50
2023-04-29T05:14:35.536Z,11.60
2023-04-29T05:17:03.379Z,11.60
2023-04-29T05:19:31.265Z,11.70
2023-04-29T05:22:00.323Z,11.70
2023-04-29T05:24:29.598Z,11.70
2023-04-29T05:26:57.282Z,11.70
2023-04-29T05:29:26.184Z,11.70
2023-04-29T05:31:54.066Z,11.70
2023-04-29T05:34:21.834Z,11.80
2023-04-29T05:36:49.606Z,11.80
2023-04-29T05:39:18.789Z,11.90
2023-04-29T05:41:46.494Z,11.90
2023-04-29T05:44:14.171Z,11.90
2023-04-29T05:46:41.975Z,11.90
2023-04-29T05:49:09.932Z,12.00
2023-04-29T05:51:37.691Z,12.00
2023-04-29T05:54:05.457Z,12.10
2023-04-29T05:56:34.600Z,12.20
2023-04-29T05:59:02.316Z,12.20
2023-04-29T06:01:30.003Z,12.30
2023-04-29T06:03:57.949Z,12.30
2023-04-29T06:06:26.160Z,12.40
2023-04-29T06:08:54.095Z,12.40
2023-04-29T06:11:22.424Z,12.50
2023-04-29T06:13:51.460Z,12.50
2023-04-29T06:16:19.201Z,12.50
2023-04-29T06:18:47.034Z,12.50
2023-04-29T06:21:15.035Z,12.50
2023-04-29T06:23:42.734Z,12.50
2023-04-29T06:26:10.405Z,12.50
2023-04-29T06:28:38.148Z,12.60
2023-04-29T06:31:07.444Z,12.60
2023-04-29T06:33:35.225Z,12.60
2023-04-29T06:36:02.987Z,12.60
2023-04-29T06:38:30.693Z,12.60
2023-04-29T06:41:00.741Z,12.70
2023-04-29T06:43:28.487Z,12.70
2023-04-29T06:45:56.452Z,12.70
2023-04-29T06:48:27.520Z,12.70
2023-04-29T06:50:55.816Z,12.80
2023-04-29T06:53:23.936Z,12.90
2023-04-29T06:55:52.043Z,13.00
2023-04-29T06:58:20.131Z,13.00
2023-04-29T07:00:48.600Z,13.10
2023-04-29T07:03:16.618Z,13.20
2023-04-29T07:05:46.061Z,13.20
2023-04-29T07:08:14.234Z,13.30
2023-04-29T07:10:42.420Z,13.30
2023-04-29T07:13:10.219Z,13.30
2023-04-29T07:15:38.038Z,13.30
2023-04-29T07:18:06.266Z,13.40
2023-04-29T07:20:34.044Z,13.50
2023-04-29T07:23:03.172Z,13.60
2023-04-29T07:25:30.989Z,13.70
2023-04-29T07:27:58.702Z,13.80
2023-04-29T07:30:26.485Z,13.90
2023-04-29T07:32:54.268Z,13.90
2023-04-29T07:35:22.393Z,14.00
2023-04-29T07:37:50.240Z,14.00
2023-04-29T07:40:19.276Z,14.00
2023-04-29T07:42:46.969Z,14.10
2023-04-29T07:45:15.066Z,14.10
2023-04-29T07:47:42.758Z,14.10
2023-04-29T07:50:11.076Z,14.10
2023-04-29T07:52:38.808Z,14.10
2023-04-29T07:55:06.845Z,14.20
2023-04-29T07:57:36.019Z,14.30
2023-04-29T08:00:03.993Z,14.30
2023-04-29T08:02:31.869Z,14.40
2023-04-29T08:05:01.123Z,14.40
2023-04-29T08:07:29.333Z,14.50
2023-04-29T08:09:57.046Z,14.50
2023-04-29T08:12:24.722Z,14.50
2023-04-29T08:14:54.012Z,14.50
2023-04-29T08:17:22.248Z,14.50
2023-04-29T08:19:50.036Z,14.60
2023-04-29T08:22:18.587Z,14.60
2023-04-29T08:24:46.267Z,14.60
2023-04-29T08:27:15.055Z,14.50
2023-04-29T08:29:43.064Z,14.50
2023-04-29T08:32:12.138Z,14.50
2023-04-29T08:34:41.486Z,14.60
2023-04-29T08:37:09.206Z,14.60
2023-04-29T08:39:36.897Z,14.60
2023-04-29T08:42:09.273Z,14.60
2023-04-29T08:44:37.627Z,14.60
2023-04-29T08:47:06.253Z,14.60
2023-04-29T08:49:37.982Z,14.60
2023-04-29T08:52:06.184Z,14.70
2023-04-29T08:54:33.962Z,14.60
2023-04-29T08:57:02.803Z,14.70
2023-04-29T08:59:31.437Z,14.80
2023-04-29T09:01:59.803Z,14.90
2023-04-29T09:04:32.577Z,14.90
2023-04-29T09:07:02.254Z,15.00
2023-04-29T09:09:29.950Z,15.00
2023-04-29T09:11:57.678Z,15.00
2023-04-29T09:14:26.290Z,15.00
2023-04-29T09:16:54.033Z,15.00
2023-04-29T09:19:31.817Z,15.00
2023-04-29T09:21:59.771Z,15.00
2023-04-29T09:24:30.163Z,15.10
2023-04-29T09:26:58.636Z,15.20
2023-04-29T09:29:26.476Z,15.20
2023-04-29T09:31:54.398Z,15.30
2023-04-29T09:34:31.863Z,15.40
2023-04-29T09:36:59.885Z,15.50
2023-04-29T09:39:38.724Z,15.60
2023-04-29T09:42:06.940Z,15.80
2023-04-29T09:44:35.815Z,15.80
2023-04-29T09:47:04.244Z,15.80
2023-04-29T09:49:35.436Z,16.00
2023-04-29T09:52:04.153Z,16.10
2023-04-29T09:54:33.969Z,16.10
2023-04-29T09:57:05.863Z,16.20
2023-04-29T09:59:35.980Z,16.30
2023-04-29T10:02:09.284Z,16.30
2023-04-29T10:04:40.335Z,16.30
2023-04-29T10:07:08.221Z,16.40
2023-04-29T10:09:38.539Z,16.40
2023-04-29T10:12:08.098Z,16.50
2023-04-29T10:14:40.023Z,16.60
2023-04-29T10:17:11.686Z,16.70
2023-04-29T10:19:40.758Z,16.70
2023-04-29T10:22:09.951Z,16.70
2023-04-29T10:24:40.110Z,16.70
2023-04-29T10:27:08.506Z,16.80
2023-04-29T10:29:37.844Z,16.80
2023-04-29T10:32:08.344Z,16.80
2023-04-29T10:34:38.920Z,16.90
2023-04-29T10:37:06.796Z,16.90
2023-04-29T10:39:37.378Z,17.00
2023-04-29T10:42:07.198Z,16.90
2023-04-29T10:44:55.949Z,16.80
2023-04-29T10:47:23.740Z,16.70
2023-04-29T10:50:05.224Z,16.50
2023-04-29T10:52:52.044Z,16.50
2023-04-29T10:55:19.851Z,16.40
2023-04-29T10:57:49.329Z,16.30
2023-04-29T11:00:23.099Z,16.20
2023-04-29T11:02:50.942Z,16.10
2023-04-29T11:05:30.323Z,16.10
2023-04-29T11:08:10.091Z,16.10
2023-04-29T11:10:38.779Z,16.20
2023-04-29T11:13:29.753Z,16.30
2023-04-29T11:16:04.919Z,16.40
2023-04-29T11:18:32.974Z,16.40
2023-04-29T11:21:13.939Z,16.50
2023-04-29T11:23:42.498Z,16.50
2023-04-29T11:26:10.288Z,16.50
2023-04-29T11:28:40.071Z,16.60
2023-04-29T11:31:08.914Z,16.70
2023-04-29T11:33:36.869Z,16.70
2023-04-29T11:36:04.857Z,16.70
2023-04-29T11:38:32.634Z,16.60
2023-04-29T11:41:00.748Z,16.70
2023-04-29T11:43:28.616Z,16.80
2023-04-29T11:45:57.679Z,16.80
2023-04-29T11:48:26.181Z,16.70
2023-04-29T11:50:54.878Z,16.70
2023-04-29T11:53:22.904Z,16.70
2023-04-29T11:55:50.771Z,16.60
2023-04-29T11:58:18.621Z,16.60
2023-04-29T12:00:48.001Z,16.70
2023-04-29T12:03:17.639Z,16.70
2023-04-29T12:05:47.486Z,16.80
2023-04-29T12:08:15.271Z,16.80
2023-04-29T12:10:43.033Z,16.80
2023-04-29T12:13:11.212Z,16.90
2023-04-29T12:15:40.235Z,17.00
2023-04-29T12:18:08.433Z,17.10
2023-04-29T12:20:39.151Z,17.20
2023-04-29T12:23:13.910Z,17.20
2023-04-29T12:25:41.628Z,17.20
2023-04-29T12:28:12.891Z,17.30
2023-04-29T12:30:40.678Z,17.30
2023-04-29T12:33:09.627Z,17.40
2023-04-29T12:35:39.088Z,17.50
2023-04-29T12:38:06.947Z,17.60
2023-04-29T12:40:34.799Z,17.70
2023-04-29T12:43:08.062Z,17.70
2023-04-29T12:45:36.309Z,17.80
2023-04-29T12:48:08.948Z,17.90
2023-04-29T12:50:41.661Z,17.90
2023-04-29T12:53:09.920Z,18.00
2023-04-29T12:55:38.397Z,18.00
2023-04-29T12:58:07.331Z,17.90
2023-04-29T13:00:37.298Z,17.90
2023-04-29T13:03:05.726Z,17.80
2023-04-29T13:05:33.641Z,17.80
2023-04-29T13:08:02.909Z,17.70
2023-04-29T13:10:31.037Z,17.70
2023-04-29T13:12:58.742Z,17.70
2023-04-29T13:15:26.701Z,17.60
2023-04-29T13:17:55.521Z,17.70
2023-04-29T13:20:23.434Z,17.80
2023-04-29T13:22:51.537Z,17.90
2023-04-29T13:25:21.052Z,17.90
2023-04-29T13:27:49.705Z,18.00
2023-04-29T13:30:17.571Z,18.00
2023-04-29T13:32:51.698Z,17.90
2023-04-29T13:35:23.058Z,17.90
2023-04-29T13:37:50.827Z,17.90
2023-04-29T13:40:21.211Z,17.90
2023-04-29T13:42:50.522Z,17.90
2023-04-29T13:45:21.028Z,17.80
2023-04-29T13:51:00.855Z,17.60
2023-04-29T13:56:35.078Z,17.40
2023-04-29T14:01:11.211Z,17.20
2023-04-29T14:03:47.004Z,17.10
2023-04-29T14:06:14.896Z,17.10
2023-04-29T14:08:42.680Z,17.10
2023-04-29T14:11:11.789Z,17.00
2023-04-29T14:13:39.512Z,16.90
2023-04-29T14:16:07.589Z,16.90
2023-04-29T14:18:35.426Z,16.90
2023-04-29T14:21:03.170Z,16.80
2023-04-29T14:23:30.861Z,16.80
2023-04-29T14:26:11.493Z,16.80
2023-04-29T14:28:47.916Z,16.80
2023-04-29T14:31:18.055Z,16.80
2023-04-29T14:33:45.861Z,16.90
2023-04-29T14:36:13.624Z,16.90
2023-04-29T14:38:41.423Z,16.90
2023-04-29T14:41:09.144Z,16.90
2023-04-29T14:43:36.965Z,17.00
2023-04-29T14:46:06.709Z,16.90
2023-04-29T14:48:34.524Z,16.90
2023-04-29T14:51:02.307Z,16.90
2023-04-29T14:53:30.061Z,16.90
2023-04-29T14:55:57.783Z,16.80
2023-04-29T14:58:25.709Z,16.90
2023-04-29T15:00:53.419Z,16.90
2023-04-29T15:03:23.257Z,17.00
2023-04-29T15:05:51.878Z,17.00
2023-04-29T15:08:19.778Z,16.90
2023-04-29T15:10:47.989Z,16.90
2023-04-29T15:13:15.871Z,16.90
2023-04-29T15:15:43.608Z,16.90
2023-04-29T15:18:11.398Z,17.00
2023-04-29T15:20:40.568Z,17.00
2023-04-29T15:23:09.075Z,17.00
2023-04-29T15:25:38.278Z,17.10
2023-04-29T15:28:06.129Z,17.00
2023-04-29T15:30:33.880Z,17.00
2023-04-29T15:33:01.704Z,17.00
2023-04-29T15:35:29.483Z,17.00
2023-04-29T15:37:59.347Z,16.90
2023-04-29T15:40:27.079Z,16.90
2023-04-29T15:42:54.840Z,16.80
2023-04-29T15:45:22.569Z,16.80
2023-04-29T15:47:50.334Z,16.70
2023-04-29T15:50:18.412Z,16.60
2023-04-29T15:52:46.545Z,16.60
2023-04-29T15:55:16.780Z,16.60
2023-04-29T15:57:46.342Z,16.50
2023-04-29T16:00:14.569Z,16.50
2023-04-29T16:02:42.296Z,16.40
2023-04-29T16:05:10.473Z,16.40
2023-04-29T16:07:38.167Z,16.30
2023-04-29T16:10:06.292Z,16.30
2023-04-29T16:12:35.353Z,16.30
2023-04-29T16:15:03.380Z,16.30
2023-04-29T16:17:32.509Z,16.30
2023-04-29T16:20:00.297Z,16.20
2023-04-29T16:22:28.894Z,16.20
2023-04-29T16:24:56.613Z,16.20
2023-04-29T16:27:24.399Z,16.20
2023-04-29T16:29:55.531Z,16.10
2023-04-29T16:32:23.684Z,16.10
2023-04-29T16:34:51.559Z,16.10
2023-04-29T16:37:19.652Z,16.00
2023-04-29T16:39:47.363Z,15.90
2023-04-29T16:42:15.062Z,15.90
2023-04-29T16:44:42.843Z,15.90
2023-04-29T16:47:11.986Z,15.90
2023-04-29T16:49:40.708Z,15.90
2023-04-29T16:52:08.491Z,15.90
2023-04-29T16:54:36.408Z,15.80
2023-04-29T16:57:04.156Z,15.80
2023-04-29T16:59:31.915Z,15.70
2023-04-29T17:02:01.320Z,15.70
2023-04-29T17:04:31.527Z,15.70
2023-04-29T17:07:01.305Z,15.70
2023-04-29T17:09:29.236Z,15.70
2023-04-29T17:11:57.991Z,15.70
2023-04-29T17:14:26.170Z,15.70
2023-04-29T17:16:53.883Z,15.60
2023-04-29T17:19:21.675Z,15.70
2023-04-29T17:21:50.764Z,15.60
2023-04-29T17:24:18.535Z,15.60
2023-04-29T17:26:46.229Z,15.60
2023-04-29T17:29:13.949Z,15.60
2023-04-29T17:31:54.302Z,15.50
2023-04-29T17:34:25.643Z,15.50
2023-04-29T17:36:54.749Z,15.50
2023-04-29T17:39:22.462Z,15.50
2023-04-29T17:41:50.132Z,15.50
2023-04-29T17:44:17.899Z,15.50
2023-04-29T17:46:45.615Z,15.50
2023-04-29T17:49:14.189Z,15.40
2023-04-29T17:51:41.937Z,15.40
2023-04-29T17:54:11.107Z,15.40
2023-04-29T17:56:38.853Z,15.40
2023-04-29T17:59:06.968Z,15.40
2023-04-29T18:01:34.883Z,15.30
2023-04-29T18:04:02.934Z,15.30
2023-04-29T18:06:31.858Z,15.30
2023-04-29T18:08:59.625Z,15.20
2023-04-29T18:11:29.171Z,15.30
2023-04-29T18:13:56.968Z,15.20
2023-04-29T18:16:24.752Z,15.20
2023-04-29T18:18:54.526Z,15.20
2023-04-29T18:21:24.151Z,15.20
2023-04-29T18:23:51.880Z,15.20
2023-04-29T18:26:19.696Z,15.10
2023-04-29T18:28:48.834Z,15.10
2023-04-29T18:31:17.082Z,15.10
2023-04-29T18:33:45.315Z,15.10
2023-04-29T18:36:14.473Z,15.00
2023-04-29T18:38:43.119Z,15.00
2023-04-29T18:41:11.984Z,15.00
2023-04-29T18:43:39.794Z,15.00
2023-04-29T18:46:09.045Z,15.00
2023-04-29T18:48:38.246Z,15.00
2023-04-29T18:51:06.145Z,15.00
2023-04-29T18:53:34.249Z,15.00
2023-04-29T18:56:02.019Z,15.00
2023-04-29T18:58:29.814Z,15.00
2023-04-29T19:00:59.982Z,15.00
2023-04-29T19:03:29.432Z,14.90
2023-04-29T19:05:57.946Z,14.90
2023-04-29T19:08:26.205Z,14.90
2023-04-29T19:10:54.413Z,14.80
2023-04-29T19:13:22.277Z,14.80
2023-04-29T19:15:52.583Z,14.90
2023-04-29T19:18:21.354Z,14.90
2023-04-29T19:20:50.507Z,14.80
2023-04-29T19:23:18.611Z,14.80
2023-04-29T19:25:46.346Z,14.70
2023-04-29T19:28:14.128Z,14.70
2023-04-29T19:30:41.967Z,14.70
2023-04-29T19:33:09.712Z,14.60
2023-04-29T19:35:37.451Z,14.60
2023-04-29T19:38:06.513Z,14.60
2023-04-29T19:40:34.210Z,14.50
2023-04-29T19:43:01.922Z,14.50
2023-04-29T19:45:29.742Z,14.50
2023-04-29T19:47:59.578Z,14.50
2023-04-29T19:50:27.540Z,14.50
2023-04-29T19:52:55.225Z,14.40
2023-04-29T19:55:24.438Z,14.40
2023-04-29T19:57:52.483Z,14.40
2023-04-29T20:00:20.298Z,14.40
2023-04-29T20:02:50.751Z,14.40
2023-04-29T20:05:19.648Z,14.40
2023-04-29T20:07:47.313Z,14.30
2023-04-29T20:10:15.086Z,14.30
2023-04-29T20:12:44.207Z,14.20
2023-04-29T20:15:12.366Z,14.20
2023-04-29T20:17:40.204Z,14.20
2023-04-29T20:20:09.417Z,14.20
2023-04-29T20:22:37.335Z,14.20
2023-04-29T20:25:05.265Z,14.20
2023-04-29T20:27:32.991Z,14.20
2023-04-29T20:30:02.149Z,14.20
2023-04-29T20:32:30.779Z,14.10
2023-04-29T20:34:58.532Z,14.10
2023-04-29T20:37:26.287Z,14.10
2023-04-29T20:39:54.272Z,14.10
2023-04-29T20:42:22.154Z,14.10
2023-04-29T20:44:49.851Z,14.20
2023-04-29T20:47:19.031Z,14.20
2023-04-29T20:49:46.734Z,14.20
2023-04-29T20:52:14.503Z,14.20
2023-04-29T20:54:42.240Z,14.20
2023-04-29T20:57:10.002Z,14.20
2023-04-29T20:59:37.782Z,14.20
2023-04-29T21:02:05.538Z,14.20
2023-04-29T21:04:34.678Z,14.20
2023-04-29T21:07:02.975Z,14.20
2023-04-29T21:09:30.850Z,14.20
2023-04-29T21:11:59.421Z,14.20
2023-04-29T21:14:27.321Z,14.20
2023-04-29T21:16:55.082Z,14.10
2023-04-29T21:19:22.775Z,14.10
2023-04-29T21:21:52.010Z,14.10
2023-04-29T21:24:19.707Z,14.10
2023-04-29T21:26:47.444Z,14.10
2023-04-29T21:29:15.212Z,14.10
2023-04-29T21:31:43.043Z,14.10
2023-04-29T21:34:10.814Z,14.10
2023-04-29T21:36:38.571Z,14.10
2023-04-29T21:39:08.194Z,14.10
2023-04-29T21:41:38.261Z,14.10
2023-04-29T21:44:07.062Z,14.10
2023-04-29T21:46:35.291Z,14.20
2023-04-29T21:49:03.640Z,14.10
2023-04-29T21:51:32.021Z,14.10
2023-04-29T21:53:59.803Z,14.10
2023-04-29T21:56:28.894Z,14.10
2023-04-29T21:58:56.637Z,14.10
2023-04-29T22:01:39.389Z,14.10
2023-04-29T22:04:07.470Z,14.10
2023-04-29T22:06:35.605Z,14.10
2023-04-29T22:09:03.360Z,14.10
2023-04-29T22:11:32.404Z,14.10
2023-04-29T22:14:00.170Z,14.10
2023-04-29T22:16:28.020Z,14.00
2023-04-29T22:18:57.496Z,14.00
2023-04-29T22:21:25.327Z,14.00
2023-04-29T22:23:53.001Z,14.00
2023-04-29T22:26:20.743Z,14.00
2023-04-29T22:28:49.814Z,14.00
2023-04-29T22:31:17.587Z,14.00
2023-04-29T22:33:45.283Z,14.00
2023-04-29T22:36:13.024Z,14.00
2023-04-29T22:38:40.763Z,14.00
2023-04-29T22:41:09.652Z,14.00
2023-04-29T22:43:37.368Z,14.00
2023-04-29T22:46:06.568Z,14.00
2023-04-29T22:48:34.327Z,13.90
2023-04-29T22:51:02.966Z,14.00
2023-04-29T22:53:30.793Z,13.90
2023-04-29T22:55:59.500Z,13.90
2023-04-29T22:58:27.560Z,13.90
2023-04-29T23:00:57.133Z,13.90
2023-04-29T23:03:26.727Z,13.90
2023-04-29T23:05:58.290Z,13.90
2023-04-29T23:08:26.112Z,13.80
2023-04-29T23:10:53.949Z,13.80
2023-04-29T23:13:21.656Z,13.80
2023-04-29T23:15:49.429Z,13.80
2023-04-29T23:18:17.410Z,13.80
2023-04-29T23:20:48.642Z,13.80
2023-04-29T23:23:16.364Z,13.80
2023-04-29T23:25:45.258Z,13.80
2023-04-29T23:28:13.078Z,13.80
2023-04-29T23:30:40.838Z,13.80
2023-04-29T23:33:09.052Z,13.80
2023-04-29T23:35:36.837Z,13.80
2023-04-29T23:38:05.972Z,13.70
2023-04-29T23:40:34.147Z,13.70
2023-04-29T23:43:01.883Z,13.70
2023-04-29T23:45:29.536Z,13.70
2023-04-29T23:47:57.295Z,13.70
2023-04-29T23:50:25.028Z,13.70
2023-04-29T23:52:52.681Z,13.70
2023-04-29T23:55:21.845Z,13.70
2023-04-29T23:57:49.507Z,13.70
